sensor_id;sensor_type;location;lat;lon;timestamp;P1;P2;P0
49686;PMS5003;36064;38.180;-122.272;2023-04-15T00:00:01;1.4;1.4;
49686;PMS5003;36064;38.180;-122.272;2023-04-15T00:05:00;1.8;1.4;
49686;PMS5003;36064;38.180;-122.272;2023-04-15T00:10:00;1.2;0.8;
49686;PMS5003;36064;38.180;-122.272;2023-04-15T00:15:01;1.0;0.8;
49686;PMS5003;36064;38.180;-122.272;2023-04-15T00:20:00;2.4;0.8;
49686;PMS5003;36064;38.180;-122.272;2023-04-15T00:25:00;1.4;1.0;
49686;PMS5003;36064;38.180;-122.272;2023-04-15T00:30:00;1.6;0.4;
49686;PMS5003;36064;38.180;-122.272;2023-04-15T00:35:01;2.4;1.2;
49686;PMS5003;36064;38.180;-122.272;2023-04-15T00:40:00;1.8;1.8;
49686;PMS5003;36064;38.180;-122.272;2023-04-15T00:45:00;1.8;1.8;
49686;PMS5003;36064;38.180;-122.272;2023-04-15T00:50:00;2.0;1.0;
49686;PMS5003;36064;38.180;-122.272;2023-04-15T00:55:00;1.6;1.6;
49686;PMS5003;36064;38.180;-122.272;2023-04-15T01:00:01;1.2;1.8;
49686;PMS5003;36064;38.180;-122.272;2023-04-15T01:05:01;1.2;1.8;
49686;PMS5003;36064;38.180;-122.272;2023-04-15T01:10:00;1.6;0.4;
49686;PMS5003;36064;38.180;-122.272;2023-04-15T01:15:00;3.2;2.8;
49686;PMS5003;36064;38.180;-122.272;2023-04-15T01:20:01;1.6;0.6;
49686;PMS5003;36064;38.180;-122.272;2023-04-15T01:25:02;0.2;0.2;
49686;PMS5003;36064;38.180;-122.272;2023-04-15T01:30:00;0.8;0.8;
49686;PMS5003;36064;38.180;-122.272;2023-04-15T01:35:05;1.6;0.6;
49686;PMS5003;36064;38.180;-122.272;2023-04-15T01:40:00;2.0;0.8;
49686;PMS5003;36064;38.180;-122.272;2023-04-15T01:45:00;1.6;0.6;
49686;PMS5003;36064;38.180;-122.272;2023-04-15T01:50:00;1.6;1.2;
49686;PMS5003;36064;38.180;-122.272;2023-04-15T01:55:01;1.8;1.4;
49686;PMS5003;36064;38.180;-122.272;2023-04-15T02:00:00;3.0;1.8;
49686;PMS5003;36064;38.180;-122.272;2023-04-15T02:05:00;2.2;1.2;
49686;PMS5003;36064;38.180;-122.272;2023-04-15T02:10:00;1.8;1.6;
49686;PMS5003;36064;38.180;-122.272;2023-04-15T02:15:00;3.0;2.8;
49686;PMS5003;36064;38.180;-122.272;2023-04-15T02:20:00;3.0;2.4;
49686;PMS5003;36064;38.180;-122.272;2023-04-15T02:25:00;2.2;1.2;
49686;PMS5003;36064;38.180;-122.272;2023-04-15T02:30:01;2.6;1.4;
49686;PMS5003;36064;38.180;-122.272;2023-04-15T02:35:01;2.0;0.4;
49686;PMS5003;36064;38.180;-122.272;2023-04-15T02:40:00;1.8;1.0;
49686;PMS5003;36064;38.180;-122.272;2023-04-15T02:45:00;0.6;0.6;
49686;PMS5003;36064;38.180;-122.272;2023-04-15T02:50:01;1.4;1.4;
49686;PMS5003;36064;38.180;-122.272;2023-04-15T03:00:00;0.4;1.6;
49686;PMS5003;36064;38.180;-122.272;2023-04-15T03:05:00;2.0;1.2;
49686;PMS5003;36064;38.180;-122.272;2023-04-15T03:10:00;2.2;1.4;
49686;PMS5003;36064;38.180;-122.272;2023-04-15T03:15:00;1.6;0.8;
49686;PMS5003;36064;38.180;-122.272;2023-04-15T03:20:01;2.6;2.2;
49686;PMS5003;36064;38.180;-122.272;2023-04-15T03:25:00;1.4;1.0;
49686;PMS5003;36064;38.180;-122.272;2023-04-15T03:30:00;2.6;1.2;
49686;PMS5003;36064;38.180;-122.272;2023-04-15T03:35:00;2.6;1.2;
49686;PMS5003;36064;38.180;-122.272;2023-04-15T03:40:01;2.2;1.8;
49686;PMS5003;36064;38.180;-122.272;2023-04-15T03:45:00;2.6;1.8;
49686;PMS5003;36064;38.180;-122.272;2023-04-15T03:50:00;1.8;1.0;
49686;PMS5003;36064;38.180;-122.272;2023-04-15T03:55:00;1.8;1.8;
49686;PMS5003;36064;38.180;-122.272;2023-04-15T04:00:00;3.6;2.8;
49686;PMS5003;36064;38.180;-122.272;2023-04-15T04:05:01;0.6;0.6;
49686;PMS5003;36064;38.180;-122.272;2023-04-15T04:10:01;1.8;1.2;
49686;PMS5003;36064;38.180;-122.272;2023-04-15T04:15:00;1.4;1.2;
49686;PMS5003;36064;38.180;-122.272;2023-04-15T04:20:00;1.4;1.0;
49686;PMS5003;36064;38.180;-122.272;2023-04-15T04:25:00;0.4;0.8;
49686;PMS5003;36064;38.180;-122.272;2023-04-15T04:30:00;1.6;1.2;
49686;PMS5003;36064;38.180;-122.272;2023-04-15T04:35:00;1.8;1.8;
49686;PMS5003;36064;38.180;-122.272;2023-04-15T04:40:00;1.6;1.2;
49686;PMS5003;36064;38.180;-122.272;2023-04-15T04:45:00;1.6;1.2;
49686;PMS5003;36064;38.180;-122.272;2023-04-15T04:50:01;1.4;0.6;
49686;PMS5003;36064;38.180;-122.272;2023-04-15T04:55:00;1.6;1.0;
49686;PMS5003;36064;38.180;-122.272;2023-04-15T05:00:01;1.4;1.0;
49686;PMS5003;36064;38.180;-122.272;2023-04-15T05:05:00;0.4;0.4;
49686;PMS5003;36064;38.180;-122.272;2023-04-15T05:10:00;0.4;0.4;
49686;PMS5003;36064;38.180;-122.272;2023-04-15T05:15:00;0.6;0.6;
49686;PMS5003;36064;38.180;-122.272;2023-04-15T05:20:00;1.2;1.0;
49686;PMS5003;36064;38.180;-122.272;2023-04-15T05:25:00;1.8;1.0;
49686;PMS5003;36064;38.180;-122.272;2023-04-15T05:30:00;2.4;1.0;
49686;PMS5003;36064;38.180;-122.272;2023-04-15T05:35:01;1.4;1.8;
49686;PMS5003;36064;38.180;-122.272;2023-04-15T05:40:00;1.4;0.8;
49686;PMS5003;36064;38.180;-122.272;2023-04-15T05:45:00;2.4;1.8;
49686;PMS5003;36064;38.180;-122.272;2023-04-15T05:50:00;0.8;0.8;
49686;PMS5003;36064;38.180;-122.272;2023-04-15T05:55:00;2.0;1.2;
49686;PMS5003;36064;38.180;-122.272;2023-04-15T06:00:00;1.6;1.0;
49686;PMS5003;36064;38.180;-122.272;2023-04-15T06:05:01;3.2;2.6;
49686;PMS5003;36064;38.180;-122.272;2023-04-15T06:10:00;1.2;0.4;
49686;PMS5003;36064;38.180;-122.272;2023-04-15T06:15:00;2.0;1.2;
49686;PMS5003;36064;38.180;-122.272;2023-04-15T06:20:00;1.4;0.6;
49686;PMS5003;36064;38.180;-122.272;2023-04-15T06:25:00;1.6;1.6;
49686;PMS5003;36064;38.180;-122.272;2023-04-15T06:30:00;0.4;0.4;
49686;PMS5003;36064;38.180;-122.272;2023-04-15T06:35:00;2.8;1.2;
49686;PMS5003;36064;38.180;-122.272;2023-04-15T06:40:00;1.2;1.6;
49686;PMS5003;36064;38.180;-122.272;2023-04-15T06:45:01;1.2;1.0;
49686;PMS5003;36064;38.180;-122.272;2023-04-15T06:50:00;2.0;1.8;
49686;PMS5003;36064;38.180;-122.272;2023-04-15T06:55:00;2.0;1.8;
49686;PMS5003;36064;38.180;-122.272;2023-04-15T07:00:00;3.4;2.6;
49686;PMS5003;36064;38.180;-122.272;2023-04-15T07:05:00;1.0;2.6;
49686;PMS5003;36064;38.180;-122.272;2023-04-15T07:10:00;1.4;2.6;
49686;PMS5003;36064;38.180;-122.272;2023-04-15T07:15:00;2.0;1.0;
49686;PMS5003;36064;38.180;-122.272;2023-04-15T07:20:01;3.2;0.8;
49686;PMS5003;36064;38.180;-122.272;2023-04-15T07:25:00;1.8;0.8;
49686;PMS5003;36064;38.180;-122.272;2023-04-15T07:30:00;2.0;0.6;
49686;PMS5003;36064;38.180;-122.272;2023-04-15T07:35:01;3.0;1.0;
49686;PMS5003;36064;38.180;-122.272;2023-04-15T07:40:00;1.0;1.0;
49686;PMS5003;36064;38.180;-122.272;2023-04-15T07:45:00;2.0;0.4;
49686;PMS5003;36064;38.180;-122.272;2023-04-15T07:50:00;3.8;1.4;
49686;PMS5003;36064;38.180;-122.272;2023-04-15T07:55:00;3.0;2.6;
49686;PMS5003;36064;38.180;-122.272;2023-04-15T08:00:01;3.4;2.8;
49686;PMS5003;36064;38.180;-122.272;2023-04-15T08:05:00;3.8;2.4;
49686;PMS5003;36064;38.180;-122.272;2023-04-15T08:10:00;1.6;1.6;
49686;PMS5003;36064;38.180;-122.272;2023-04-15T08:15:00;0.8;0.8;
49686;PMS5003;36064;38.180;-122.272;2023-04-15T08:20:01;0.6;0.6;
49686;PMS5003;36064;38.180;-122.272;2023-04-15T08:25:00;0.8;0.8;
49686;PMS5003;36064;38.180;-122.272;2023-04-15T08:30:00;2.2;1.2;
49686;PMS5003;36064;38.180;-122.272;2023-04-15T08:35:00;1.6;1.2;
49686;PMS5003;36064;38.180;-122.272;2023-04-15T08:40:00;2.2;2.0;
49686;PMS5003;36064;38.180;-122.272;2023-04-15T08:45:04;3.2;2.4;
49686;PMS5003;36064;38.180;-122.272;2023-04-15T08:50:01;1.8;1.8;
49686;PMS5003;36064;38.180;-122.272;2023-04-15T08:55:01;1.2;1.2;
49686;PMS5003;36064;38.180;-122.272;2023-04-15T09:00:01;1.2;1.2;
49686;PMS5003;36064;38.180;-122.272;2023-04-15T09:05:01;3.0;2.2;
49686;PMS5003;36064;38.180;-122.272;2023-04-15T09:10:01;0.4;0.4;
49686;PMS5003;36064;38.180;-122.272;2023-04-15T09:15:00;1.6;1.8;
49686;PMS5003;36064;38.180;-122.272;2023-04-15T09:20:08;1.4;1.0;
49686;PMS5003;36064;38.180;-122.272;2023-04-15T09:25:00;1.6;1.0;
49686;PMS5003;36064;38.180;-122.272;2023-04-15T09:30:00;3.0;2.2;
49686;PMS5003;36064;38.180;-122.272;2023-04-15T09:35:09;2.6;2.4;
49686;PMS5003;36064;38.180;-122.272;2023-04-15T09:40:00;0.4;0.4;
49686;PMS5003;36064;38.180;-122.272;2023-04-15T09:45:07;0.6;0.4;
49686;PMS5003;36064;38.180;-122.272;2023-04-15T09:50:00;3.4;2.2;
49686;PMS5003;36064;38.180;-122.272;2023-04-15T09:55:00;2.8;1.0;
49686;PMS5003;36064;38.180;-122.272;2023-04-15T10:00:01;2.4;2.2;
49686;PMS5003;36064;38.180;-122.272;2023-04-15T10:05:01;3.8;3.0;
49686;PMS5003;36064;38.180;-122.272;2023-04-15T10:10:00;5.8;4.4;
49686;PMS5003;36064;38.180;-122.272;2023-04-15T10:15:02;4.0;4.0;
49686;PMS5003;36064;38.180;-122.272;2023-04-15T10:20:01;3.2;2.0;
49686;PMS5003;36064;38.180;-122.272;2023-04-15T10:25:00;3.4;2.4;
49686;PMS5003;36064;38.180;-122.272;2023-04-15T10:30:00;2.8;2.4;
49686;PMS5003;36064;38.180;-122.272;2023-04-15T10:35:00;4.4;4.0;
49686;PMS5003;36064;38.180;-122.272;2023-04-15T10:40:00;3.8;2.4;
49686;PMS5003;36064;38.180;-122.272;2023-04-15T10:45:00;3.0;1.8;
49686;PMS5003;36064;38.180;-122.272;2023-04-15T10:50:01;1.4;0.6;
49686;PMS5003;36064;38.180;-122.272;2023-04-15T10:55:02;2.0;1.6;
49686;PMS5003;36064;38.180;-122.272;2023-04-15T11:00:03;1.6;1.6;
49686;PMS5003;36064;38.180;-122.272;2023-04-15T11:05:00;1.8;1.8;
49686;PMS5003;36064;38.180;-122.272;2023-04-15T11:10:00;1.0;1.8;
49686;PMS5003;36064;38.180;-122.272;2023-04-15T11:20:00;2.4;1.2;
49686;PMS5003;36064;38.180;-122.272;2023-04-15T11:25:00;2.4;1.2;
49686;PMS5003;36064;38.180;-122.272;2023-04-15T11:30:00;2.2;1.0;
49686;PMS5003;36064;38.180;-122.272;2023-04-15T11:35:00;1.8;1.2;
49686;PMS5003;36064;38.180;-122.272;2023-04-15T11:40:01;2.8;2.2;
49686;PMS5003;36064;38.180;-122.272;2023-04-15T11:45:05;1.8;1.8;
49686;PMS5003;36064;38.180;-122.272;2023-04-15T11:55:02;4.6;2.8;
49686;PMS5003;36064;38.180;-122.272;2023-04-15T12:00:00;3.2;2.8;
49686;PMS5003;36064;38.180;-122.272;2023-04-15T12:05:02;0.6;0.6;
49686;PMS5003;36064;38.180;-122.272;2023-04-15T12:10:00;1.6;1.6;
49686;PMS5003;36064;38.180;-122.272;2023-04-15T12:15:00;1.2;1.2;
49686;PMS5003;36064;38.180;-122.272;2023-04-15T12:20:00;2.6;2.6;
49686;PMS5003;36064;38.180;-122.272;2023-04-15T12:25:00;1.8;1.8;
49686;PMS5003;36064;38.180;-122.272;2023-04-15T12:30:03;2.2;2.0;
49686;PMS5003;36064;38.180;-122.272;2023-04-15T12:35:01;2.4;2.0;
49686;PMS5003;36064;38.180;-122.272;2023-04-15T12:40:00;2.4;2.2;
49686;PMS5003;36064;38.180;-122.272;2023-04-15T12:45:00;2.4;2.2;
49686;PMS5003;36064;38.180;-122.272;2023-04-15T12:50:00;6.6;5.4;
49686;PMS5003;36064;38.180;-122.272;2023-04-15T12:55:00;3.2;3.4;
49686;PMS5003;36064;38.180;-122.272;2023-04-15T13:00:00;3.8;3.0;
49686;PMS5003;36064;38.180;-122.272;2023-04-15T13:05:01;4.0;4.0;
49686;PMS5003;36064;38.180;-122.272;2023-04-15T13:10:00;4.0;3.6;
49686;PMS5003;36064;38.180;-122.272;2023-04-15T13:15:01;5.4;4.8;
49686;PMS5003;36064;38.180;-122.272;2023-04-15T13:20:00;4.8;5.8;
49686;PMS5003;36064;38.180;-122.272;2023-04-15T13:25:00;3.4;3.0;
49686;PMS5003;36064;38.180;-122.272;2023-04-15T13:30:00;4.2;4.2;
49686;PMS5003;36064;38.180;-122.272;2023-04-15T13:35:00;2.8;2.8;
49686;PMS5003;36064;38.180;-122.272;2023-04-15T13:40:00;2.6;2.6;
49686;PMS5003;36064;38.180;-122.272;2023-04-15T13:45:00;3.6;2.6;
49686;PMS5003;36064;38.180;-122.272;2023-04-15T13:50:01;3.8;3.6;
49686;PMS5003;36064;38.180;-122.272;2023-04-15T13:55:01;4.2;3.4;
49686;PMS5003;36064;38.180;-122.272;2023-04-15T14:00:01;3.4;2.6;
49686;PMS5003;36064;38.180;-122.272;2023-04-15T14:05:00;3.0;2.6;
49686;PMS5003;36064;38.180;-122.272;2023-04-15T14:10:00;4.4;4.0;
49686;PMS5003;36064;38.180;-122.272;2023-04-15T14:15:01;3.8;2.8;
49686;PMS5003;36064;38.180;-122.272;2023-04-15T14:20:01;1.6;2.0;
49686;PMS5003;36064;38.180;-122.272;2023-04-15T14:25:00;1.6;2.4;
49686;PMS5003;36064;38.180;-122.272;2023-04-15T14:30:00;3.0;2.4;
49686;PMS5003;36064;38.180;-122.272;2023-04-15T14:35:01;2.6;2.6;
49686;PMS5003;36064;38.180;-122.272;2023-04-15T14:40:00;2.0;1.6;
49686;PMS5003;36064;38.180;-122.272;2023-04-15T14:45:00;2.6;2.6;
49686;PMS5003;36064;38.180;-122.272;2023-04-15T14:50:00;3.6;3.4;
49686;PMS5003;36064;38.180;-122.272;2023-04-15T14:55:00;4.6;4.2;
49686;PMS5003;36064;38.180;-122.272;2023-04-15T15:00:01;4.4;4.2;
49686;PMS5003;36064;38.180;-122.272;2023-04-15T15:05:01;5.6;5.6;
49686;PMS5003;36064;38.180;-122.272;2023-04-15T15:10:00;8.6;8.6;
49686;PMS5003;36064;38.180;-122.272;2023-04-15T15:15:02;7.8;7.8;
49686;PMS5003;36064;38.180;-122.272;2023-04-15T15:20:00;6.0;5.2;
49686;PMS5003;36064;38.180;-122.272;2023-04-15T15:25:00;7.8;6.8;
49686;PMS5003;36064;38.180;-122.272;2023-04-15T15:30:00;10.6;9.4;
49686;PMS5003;36064;38.180;-122.272;2023-04-15T15:35:00;12.0;12.6;
49686;PMS5003;36064;38.180;-122.272;2023-04-15T15:40:00;8.6;8.0;
49686;PMS5003;36064;38.180;-122.272;2023-04-15T15:45:01;11.2;9.8;
49686;PMS5003;36064;38.180;-122.272;2023-04-15T15:50:00;9.6;7.6;
49686;PMS5003;36064;38.180;-122.272;2023-04-15T15:55:00;7.6;6.6;
49686;PMS5003;36064;38.180;-122.272;2023-04-15T16:00:00;7.4;7.4;
49686;PMS5003;36064;38.180;-122.272;2023-04-15T16:05:01;9.4;8.2;
49686;PMS5003;36064;38.180;-122.272;2023-04-15T16:10:00;7.4;7.4;
49686;PMS5003;36064;38.180;-122.272;2023-04-15T16:15:00;7.0;6.2;
49686;PMS5003;36064;38.180;-122.272;2023-04-15T16:20:01;5.6;6.4;
49686;PMS5003;36064;38.180;-122.272;2023-04-15T16:25:00;6.4;4.4;
49686;PMS5003;36064;38.180;-122.272;2023-04-15T16:30:00;4.8;4.0;
49686;PMS5003;36064;38.180;-122.272;2023-04-15T16:35:01;4.8;2.0;
49686;PMS5003;36064;38.180;-122.272;2023-04-15T16:40:00;2.6;2.2;
49686;PMS5003;36064;38.180;-122.272;2023-04-15T16:45:01;5.4;5.2;
49686;PMS5003;36064;38.180;-122.272;2023-04-15T16:50:01;3.0;3.0;
49686;PMS5003;36064;38.180;-122.272;2023-04-15T16:55:00;1.8;1.8;
49686;PMS5003;36064;38.180;-122.272;2023-04-15T17:00:00;2.8;2.8;
49686;PMS5003;36064;38.180;-122.272;2023-04-15T17:05:01;1.0;1.0;
49686;PMS5003;36064;38.180;-122.272;2023-04-15T17:10:00;2.8;1.0;
49686;PMS5003;36064;38.180;-122.272;2023-04-15T17:15:00;2.0;1.6;
49686;PMS5003;36064;38.180;-122.272;2023-04-15T17:20:01;4.0;3.6;
49686;PMS5003;36064;38.180;-122.272;2023-04-15T17:25:00;7.4;6.0;
49686;PMS5003;36064;38.180;-122.272;2023-04-15T17:30:00;6.2;6.2;
49686;PMS5003;36064;38.180;-122.272;2023-04-15T17:35:01;4.0;4.0;
49686;PMS5003;36064;38.180;-122.272;2023-04-15T17:40:00;7.8;5.6;
49686;PMS5003;36064;38.180;-122.272;2023-04-15T17:45:00;8.4;8.0;
49686;PMS5003;36064;38.180;-122.272;2023-04-15T17:50:00;7.0;6.6;
49686;PMS5003;36064;38.180;-122.272;2023-04-15T17:55:00;7.0;6.6;
49686;PMS5003;36064;38.180;-122.272;2023-04-15T18:00:01;4.2;4.6;
49686;PMS5003;36064;38.180;-122.272;2023-04-15T18:05:01;3.8;3.6;
49686;PMS5003;36064;38.180;-122.272;2023-04-15T18:10:00;5.6;5.4;
49686;PMS5003;36064;38.180;-122.272;2023-04-15T18:15:00;4.2;4.2;
49686;PMS5003;36064;38.180;-122.272;2023-04-15T18:20:01;2.8;2.8;
49686;PMS5003;36064;38.180;-122.272;2023-04-15T18:25:00;2.4;2.4;
49686;PMS5003;36064;38.180;-122.272;2023-04-15T18:30:00;2.0;2.0;
49686;PMS5003;36064;38.180;-122.272;2023-04-15T18:35:01;1.6;1.6;
49686;PMS5003;36064;38.180;-122.272;2023-04-15T18:40:00;2.2;1.4;
49686;PMS5003;36064;38.180;-122.272;2023-04-15T18:45:01;2.6;1.0;
49686;PMS5003;36064;38.180;-122.272;2023-04-15T18:50:00;1.4;1.2;
49686;PMS5003;36064;38.180;-122.272;2023-04-15T18:55:00;1.4;1.2;
49686;PMS5003;36064;38.180;-122.272;2023-04-15T19:00:00;2.0;2.0;
49686;PMS5003;36064;38.180;-122.272;2023-04-15T19:05:01;2.4;2.4;
49686;PMS5003;36064;38.180;-122.272;2023-04-15T19:10:01;2.4;2.4;
49686;PMS5003;36064;38.180;-122.272;2023-04-15T19:15:01;3.4;3.4;
49686;PMS5003;36064;38.180;-122.272;2023-04-15T19:20:01;4.0;4.0;
49686;PMS5003;36064;38.180;-122.272;2023-04-15T19:25:00;5.6;5.6;
49686;PMS5003;36064;38.180;-122.272;2023-04-15T19:30:00;2.2;5.0;
49686;PMS5003;36064;38.180;-122.272;2023-04-15T19:35:01;2.4;2.0;
49686;PMS5003;36064;38.180;-122.272;2023-04-15T19:40:00;1.4;1.0;
49686;PMS5003;36064;38.180;-122.272;2023-04-15T19:45:00;2.4;2.4;
49686;PMS5003;36064;38.180;-122.272;2023-04-15T19:50:00;2.8;2.4;
49686;PMS5003;36064;38.180;-122.272;2023-04-15T19:55:00;1.6;1.2;
49686;PMS5003;36064;38.180;-122.272;2023-04-15T20:00:00;1.2;1.2;
49686;PMS5003;36064;38.180;-122.272;2023-04-15T20:05:00;0.6;0.6;
49686;PMS5003;36064;38.180;-122.272;2023-04-15T20:10:00;0.4;0.4;
49686;PMS5003;36064;38.180;-122.272;2023-04-15T20:15:00;2.8;2.4;
49686;PMS5003;36064;38.180;-122.272;2023-04-15T20:20:00;0.8;1.4;
49686;PMS5003;36064;38.180;-122.272;2023-04-15T20:25:00;1.4;1.0;
49686;PMS5003;36064;38.180;-122.272;2023-04-15T20:30:00;0.8;0.4;
49686;PMS5003;36064;38.180;-122.272;2023-04-15T20:35:01;0.8;0.8;
49686;PMS5003;36064;38.180;-122.272;2023-04-15T20:40:00;0.4;0.4;
49686;PMS5003;36064;38.180;-122.272;2023-04-15T20:45:01;2.0;1.4;
49686;PMS5003;36064;38.180;-122.272;2023-04-15T20:50:01;0.8;0.8;
49686;PMS5003;36064;38.180;-122.272;2023-04-15T20:55:00;1.0;1.0;
49686;PMS5003;36064;38.180;-122.272;2023-04-15T21:00:00;1.6;0.8;
49686;PMS5003;36064;38.180;-122.272;2023-04-15T21:05:01;1.4;1.0;
49686;PMS5003;36064;38.180;-122.272;2023-04-15T21:10:00;1.6;0.8;
49686;PMS5003;36064;38.180;-122.272;2023-04-15T21:15:01;0.8;0.2;
49686;PMS5003;36064;38.180;-122.272;2023-04-15T21:20:00;1.6;1.6;
49686;PMS5003;36064;38.180;-122.272;2023-04-15T21:25:00;2.0;1.6;
49686;PMS5003;36064;38.180;-122.272;2023-04-15T21:30:00;1.0;1.0;
49686;PMS5003;36064;38.180;-122.272;2023-04-15T21:35:00;2.0;1.2;
49686;PMS5003;36064;38.180;-122.272;2023-04-15T21:40:00;2.0;1.6;
49686;PMS5003;36064;38.180;-122.272;2023-04-15T21:45:00;2.4;2.2;
49686;PMS5003;36064;38.180;-122.272;2023-04-15T21:50:00;3.4;3.4;
49686;PMS5003;36064;38.180;-122.272;2023-04-15T21:55:00;1.0;1.0;
49686;PMS5003;36064;38.180;-122.272;2023-04-15T22:00:00;1.6;1.6;
49686;PMS5003;36064;38.180;-122.272;2023-04-15T22:05:00;1.6;1.6;
49686;PMS5003;36064;38.180;-122.272;2023-04-15T22:10:00;2.4;2.0;
49686;PMS5003;36064;38.180;-122.272;2023-04-15T22:15:01;2.0;0.8;
49686;PMS5003;36064;38.180;-122.272;2023-04-15T22:20:00;1.8;0.8;
49686;PMS5003;36064;38.180;-122.272;2023-04-15T22:25:00;1.0;0.8;
49686;PMS5003;36064;38.180;-122.272;2023-04-15T22:30:00;3.0;2.2;
49686;PMS5003;36064;38.180;-122.272;2023-04-15T22:35:01;0.8;0.6;
49686;PMS5003;36064;38.180;-122.272;2023-04-15T22:40:00;0.8;0.8;
49686;PMS5003;36064;38.180;-122.272;2023-04-15T22:45:00;1.0;0.8;
49686;PMS5003;36064;38.180;-122.272;2023-04-15T22:50:01;1.2;0.8;
49686;PMS5003;36064;38.180;-122.272;2023-04-15T22:55:00;0.0;0.0;
49686;PMS5003;36064;38.180;-122.272;2023-04-15T23:00:00;4.0;1.2;
49686;PMS5003;36064;38.180;-122.272;2023-04-15T23:05:00;4.0;1.2;
49686;PMS5003;36064;38.180;-122.272;2023-04-15T23:10:00;1.4;1.4;
49686;PMS5003;36064;38.180;-122.272;2023-04-15T23:15:01;1.0;1.0;
49686;PMS5003;36064;38.180;-122.272;2023-04-15T23:20:00;0.6;0.8;
49686;PMS5003;36064;38.180;-122.272;2023-04-15T23:25:00;2.0;0.8;
49686;PMS5003;36064;38.180;-122.272;2023-04-15T23:30:00;1.4;0.8;
49686;PMS5003;36064;38.180;-122.272;2023-04-15T23:35:01;0.8;0.6;
49686;PMS5003;36064;38.180;-122.272;2023-04-15T23:40:00;1.4;1.0;
49686;PMS5003;36064;38.180;-122.272;2023-04-15T23:45:00;1.4;1.0;
49686;PMS5003;36064;38.180;-122.272;2023-04-15T23:50:01;1.0;1.0;
49686;PMS5003;36064;38.180;-122.272;2023-04-15T23:55:00;0.0;0.0;
